Time;durP1;ratioP1;P1;durP2;ratioP2;P2;SDS_P1;SDS_P2;PMS_P1;PMS_P2;Temp;Humidity;BMP_temperature;BMP_pressure;BME280_temperature;BME280_humidity;BME280_pressure;Samples;Min_cycle;Max_cycle;Signal;HPM_P1;HPM_P2
2021/01/10 00:00:19;;;;;;;141.65;27.85;;;;;;;-0.28;100.00;98394.69;4946336;28;20050;-82
2021/01/10 00:02:47;;;;;;;122.82;27.75;;;;;;;-0.30;100.00;98394.13;4971408;28;20042;-81
2021/01/10 00:05:45;;;;;;;141.75;28.42;;;;;;;-0.35;100.00;98391.34;5016271;28;20118;-81
2021/01/10 00:08:12;;;;;;;131.48;26.92;;;;;;;-0.50;100.00;98378.44;4931639;28;20077;-82
2021/01/10 00:10:38;;;;;;;116.68;26.63;;;;;;;-0.39;100.00;98390.19;4975308;28;20113;-81
2021/01/10 00:13:05;;;;;;;122.45;26.17;;;;;;;-0.49;100.00;98380.06;4973380;28;20125;-82
2021/01/10 00:15:32;;;;;;;109.78;25.55;;;;;;;-0.39;100.00;98391.00;4968215;28;20065;-82
2021/01/10 00:17:59;;;;;;;120.07;26.67;;;;;;;-0.43;100.00;98388.97;4981607;28;20050;-82
2021/01/10 00:20:27;;;;;;;106.25;25.50;;;;;;;-0.52;100.00;98393.00;4978024;28;20042;-81
2021/01/10 00:22:55;;;;;;;120.45;26.50;;;;;;;-0.51;100.00;98391.97;4993125;28;20110;-80
2021/01/10 00:25:22;;;;;;;126.65;27.88;;;;;;;-0.50;100.00;98389.09;4984305;28;20061;-83
2021/01/10 00:27:51;;;;;;;121.47;27.25;;;;;;;-0.45;100.00;98391.88;4997916;28;20049;-79
2021/01/10 00:30:20;;;;;;;135.60;28.63;;;;;;;-0.47;100.00;98399.28;4996830;28;20050;-82
2021/01/10 00:32:52;;;;;;;112.70;26.65;;;;;;;-0.47;100.00;98406.44;4975859;28;20242;-82
2021/01/10 00:35:23;;;;;;;105.28;26.33;;;;;;;-0.48;100.00;98408.28;4976471;28;20116;-82
2021/01/10 00:37:52;;;;;;;96.97;23.90;;;;;;;-0.47;100.00;98404.59;4985541;28;20046;-81
2021/01/10 00:40:24;;;;;;;84.50;22.35;;;;;;;-0.47;100.00;98404.59;4995464;28;20142;-82
2021/01/10 00:42:51;;;;;;;94.03;23.88;;;;;;;-0.49;100.00;98400.53;4981789;28;20108;-83
2021/01/10 00:45:18;;;;;;;80.43;21.58;;;;;;;-0.59;100.00;98395.75;4968308;28;20050;-81
2021/01/10 00:47:45;;;;;;;95.10;23.08;;;;;;;-0.54;100.00;98393.22;4977692;28;20174;-81
2021/01/10 00:50:12;;;;;;;114.40;24.33;;;;;;;-0.60;100.00;98394.13;4982267;28;20100;-82
2021/01/10 00:52:39;;;;;;;96.05;24.23;;;;;;;-0.54;100.00;98403.84;4978145;28;20050;-82
2021/01/10 00:55:07;;;;;;;98.57;25.10;;;;;;;-0.57;100.00;98401.66;4961438;28;20317;-81
2021/01/10 00:57:34;;;;;;;96.30;25.40;;;;;;;-0.58;100.00;98407.19;4979262;28;20046;-82
2021/01/10 01:00:12;;;;;;;87.97;23.15;;;;;;;-0.51;100.00;98408.72;4994075;28;20108;-82
2021/01/10 01:02:39;;;;;;;92.80;24.77;;;;;;;-0.46;100.00;98414.19;4959847;28;20042;-82
2021/01/10 01:05:07;;;;;;;91.60;23.88;;;;;;;-0.41;100.00;98416.19;4977125;28;20043;-82
2021/01/10 01:07:33;;;;;;;84.68;23.02;;;;;;;-0.48;100.00;98413.59;4959925;28;20097;-83
2021/01/10 01:10:01;;;;;;;86.47;23.50;;;;;;;-0.48;100.00;98418.91;4993345;28;20568;-81
2021/01/10 01:12:28;;;;;;;88.80;25.27;;;;;;;-0.51;100.00;98419.38;4980669;28;20567;-83
2021/01/10 01:14:54;;;;;;;93.85;23.77;;;;;;;-0.42;100.00;98420.69;4963943;28;20046;-82
2021/01/10 01:17:21;;;;;;;87.75;22.58;;;;;;;-0.25;100.00;98423.50;4964481;28;20233;-82
2021/01/10 01:19:48;;;;;;;98.85;25.13;;;;;;;-0.19;100.00;98435.94;4997370;28;20073;-82
2021/01/10 01:22:15;;;;;;;106.78;25.10;;;;;;;-0.16;100.00;98433.63;4947447;28;20051;-83
2021/01/10 01:24:41;;;;;;;103.35;25.13;;;;;;;-0.17;100.00;98425.84;4997147;28;20072;-82
2021/01/10 01:27:08;;;;;;;95.63;25.88;;;;;;;-0.21;100.00;98435.34;4998352;28;20050;-81
2021/01/10 01:29:35;;;;;;;95.75;26.55;;;;;;;-0.27;100.00;98437.06;4998098;28;20050;-82
2021/01/10 01:32:02;;;;;;;95.35;24.65;;;;;;;-0.17;100.00;98436.50;4964702;28;20050;-83
2021/01/10 01:34:29;;;;;;;94.65;26.20;;;;;;;-0.17;100.00;98426.69;4981197;28;20046;-83
2021/01/10 01:36:57;;;;;;;91.95;25.13;;;;;;;-0.42;100.00;98403.91;4974874;23;20062;-80
2021/01/10 01:39:30;;;;;;;88.55;23.55;;;;;;;-0.42;100.00;98401.25;4944874;28;20074;-80
2021/01/10 01:42:04;;;;;;;96.80;25.05;;;;;;;-0.31;100.00;98430.53;4977602;28;20042;-80
2021/01/10 01:44:30;;;;;;;94.68;24.50;;;;;;;-0.33;100.00;98429.16;4979551;28;20043;-80
2021/01/10 01:46:56;;;;;;;93.72;25.98;;;;;;;-0.30;100.00;98423.38;4961535;28;20078;-80
2021/01/10 01:49:25;;;;;;;88.28;26.00;;;;;;;-0.34;100.00;98419.56;5020454;23;20103;-79
2021/01/10 01:51:51;;;;;;;82.22;22.75;;;;;;;-0.31;100.00;98433.22;5047166;28;20037;-77
2021/01/10 01:54:17;;;;;;;74.32;21.80;;;;;;;-0.38;100.00;98439.66;5038043;28;20032;-77
2021/01/10 01:56:45;;;;;;;86.13;22.10;;;;;;;-0.37;100.00;98435.97;5056341;28;20478;-78
2021/01/10 01:59:13;;;;;;;78.80;22.33;;;;;;;-0.33;100.00;98432.63;5051977;28;20121;-79
2021/01/10 02:01:40;;;;;;;81.90;21.40;;;;;;;-0.29;100.00;98428.50;5051999;28;20109;-78
2021/01/10 02:04:32;;;;;;;76.85;22.20;;;;;;;-0.15;100.00;98439.75;5050868;28;20045;-79
2021/01/10 02:07:12;;;;;;;84.20;21.85;;;;;;;-0.11;100.00;98427.63;5046936;28;20048;-78
2021/01/10 02:09:44;;;;;;;61.97;18.92;;;;;;;-0.16;100.00;98428.31;5035767;28;20057;-78
2021/01/10 02:12:12;;;;;;;60.47;19.75;;;;;;;-0.24;100.00;98441.13;5038786;28;20045;-78
2021/01/10 02:14:43;;;;;;;64.72;20.30;;;;;;;-0.16;100.00;98433.63;5030240;28;20056;-78
2021/01/10 02:17:11;;;;;;;56.40;18.90;;;;;;;-0.22;100.00;98434.53;5030393;28;20073;-78
2021/01/10 02:19:46;;;;;;;68.30;20.23;;;;;;;-0.16;100.00;98430.97;5029727;28;20452;-78
2021/01/10 02:22:15;;;;;;;59.03;18.52;;;;;;;-0.08;100.00;98440.47;5029556;28;20076;-77
2021/01/10 02:24:41;;;;;;;62.38;19.98;;;;;;;-0.08;100.00;98432.50;5012438;28;20485;-77
2021/01/10 02:27:09;;;;;;;65.22;19.20;;;;;;;-0.08;100.00;98440.47;5029756;28;20046;-77
2021/01/10 02:29:36;;;;;;;59.78;18.98;;;;;;;-0.17;100.00;98434.66;5044531;28;20060;-78
2021/01/10 02:32:05;;;;;;;62.55;20.15;;;;;;;-0.24;100.00;98439.28;5049663;28;20061;-80
2021/01/10 02:34:34;;;;;;;60.85;19.52;;;;;;;-0.19;100.00;98442.06;5031777;28;20041;-79
2021/01/10 02:37:04;;;;;;;61.13;20.20;;;;;;;-0.09;100.00;98455.63;5049509;28;20082;-79
2021/01/10 02:39:58;;;;;;;67.30;20.60;;;;;;;-0.05;100.00;98445.31;5049375;28;20056;-78
2021/01/10 02:42:35;;;;;;;66.53;20.60;;;;;;;-0.01;100.00;98454.50;5049227;28;20052;-77
2021/01/10 02:45:14;;;;;;;71.72;20.85;;;;;;;-0.04;100.00;98454.94;5053495;28;20045;-78
2021/01/10 02:47:40;;;;;;;73.82;21.13;;;;;;;-0.03;100.00;98444.06;5042379;28;20101;-76
2021/01/10 02:50:08;;;;;;;66.95;21.17;;;;;;;-0.05;100.00;98442.66;5043351;28;20496;-78
2021/01/10 02:52:35;;;;;;;64.97;20.40;;;;;;;-0.02;100.00;98451.00;5045183;28;20488;-78
2021/01/10 02:55:02;;;;;;;70.07;20.88;;;;;;;-0.14;100.00;98450.19;5027237;28;20072;-80
2021/01/10 02:57:35;;;;;;;72.90;21.73;;;;;;;-0.18;100.00;98437.56;5027546;28;20052;-75
2021/01/10 03:00:04;;;;;;;67.22;20.52;;;;;;;-0.22;100.00;98447.81;5037120;28;20093;-77
2021/01/10 03:02:33;;;;;;;76.78;19.98;;;;;;;-0.18;100.00;98450.84;5033534;28;20102;-77
2021/01/10 03:05:00;;;;;;;74.55;21.95;;;;;;;-0.14;100.00;98439.53;5031933;28;20046;-77
2021/01/10 03:07:28;;;;;;;72.05;21.75;;;;;;;-0.05;100.00;98443.47;5015188;28;20028;-79
2021/01/10 03:09:55;;;;;;;77.35;22.70;;;;;;;0.06;100.00;98454.38;5030759;28;20041;-79
2021/01/10 03:12:26;;;;;;;69.32;21.05;;;;;;;0.02;100.00;98448.72;5030275;28;20046;-78
2021/01/10 03:15:00;;;;;;;66.70;21.73;;;;;;;-0.12;100.00;98432.13;5030182;28;20101;-79
2021/01/10 03:17:41;;;;;;;53.30;15.55;;;;;;;-0.16;100.00;98436.28;5029351;28;20049;-77
2021/01/10 03:20:10;;;;;;;76.50;21.75;;;;;;;-0.14;100.00;98430.72;5030095;28;20080;-78
2021/01/10 03:22:37;;;;;;;73.75;22.23;;;;;;;-0.14;100.00;98428.88;5011379;28;20050;-79
2021/01/10 03:25:06;;;;;;;70.32;21.17;;;;;;;-0.16;100.00;98433.63;5028970;28;20046;-80
2021/01/10 03:27:33;;;;;;;72.60;22.27;;;;;;;-0.09;100.00;98444.16;5029005;28;20048;-79
2021/01/10 03:30:05;;;;;;;73.30;22.48;;;;;;;0.00;100.00;98432.19;5030004;28;20409;-78
2021/01/10 03:32:31;;;;;;;72.18;23.00;;;;;;;0.04;100.00;98443.16;5028900;28;20359;-80
2021/01/10 03:34:57;;;;;;;79.32;23.27;;;;;;;0.00;100.00;98435.63;5027907;28;20516;-78
2021/01/10 03:37:23;;;;;;;72.35;21.73;;;;;;;0.00;100.00;98445.47;5028790;28;20069;-79
2021/01/10 03:39:51;;;;;;;71.78;21.75;;;;;;;-0.07;100.00;98437.56;5027767;28;20102;-79
2021/01/10 03:42:17;;;;;;;83.80;24.63;;;;;;;-0.14;100.00;98426.22;5028603;28;20216;-77
2021/01/10 03:44:44;;;;;;;75.80;23.33;;;;;;;-0.06;100.00;98435.72;5028722;28;20042;-79
2021/01/10 03:47:11;;;;;;;82.95;24.10;;;;;;;-0.13;100.00;98419.84;5026950;28;20046;-79
2021/01/10 03:49:39;;;;;;;82.40;22.73;;;;;;;-0.18;100.00;98424.25;5027306;28;20042;-80
2021/01/10 03:52:06;;;;;;;81.25;23.88;;;;;;;-0.20;100.00;98421.81;5026603;28;20049;-78
2021/01/10 03:54:32;;;;;;;81.68;24.98;;;;;;;-0.22;100.00;98421.22;5010338;28;20064;-78
2021/01/10 03:57:02;;;;;;;87.53;25.00;;;;;;;-0.22;100.00;98421.22;5028084;28;20037;-79
2021/01/10 03:59:28;;;;;;;86.18;25.40;;;;;;;-0.21;100.00;98428.19;5034572;28;20041;-77
2021/01/10 04:01:55;;;;;;;83.93;24.27;;;;;;;-0.25;100.00;98427.00;5012926;28;20041;-78
2021/01/10 04:04:23;;;;;;;81.72;23.60;;;;;;;-0.21;100.00;98424.69;5016308;28;20075;-79
2021/01/10 04:06:49;;;;;;;89.30;25.90;;;;;;;-0.16;100.00;98428.31;4997879;28;20121;-77
2021/01/10 04:09:15;;;;;;;85.25;23.48;;;;;;;-0.22;100.00;98425.72;5017188;28;20042;-77
2021/01/10 04:11:41;;;;;;;80.93;23.48;;;;;;;-0.22;100.00;98412.44;5002217;28;20061;-79
2021/01/10 04:14:08;;;;;;;80.43;25.90;;;;;;;-0.29;100.00;98423.19;5020388;28;20061;-79
2021/01/10 04:16:34;;;;;;;79.00;24.40;;;;;;;-0.39;100.00;98417.59;5023716;28;20075;-77
2021/01/10 04:19:01;;;;;;;87.28;26.17;;;;;;;-0.34;100.00;98419.56;5028195;28;20077;-78
2021/01/10 04:21:34;;;;;;;78.82;24.55;;;;;;;-0.36;100.00;98413.66;5012628;28;20113;-78
2021/01/10 04:24:02;;;;;;;77.43;23.05;;;;;;;-0.44;100.00;98413.97;5028375;28;20297;-80
2021/01/10 04:26:32;;;;;;;83.47;24.08;;;;;;;-0.41;100.00;98413.53;5027879;28;20125;-78
2021/01/10 04:28:59;;;;;;;79.80;23.98;;;;;;;-0.48;100.00;98413.59;5028134;28;20105;-79
2021/01/10 04:31:25;;;;;;;76.35;22.85;;;;;;;-0.60;100.00;98423.38;5028907;28;20045;-79
2021/01/10 04:33:51;;;;;;;84.35;23.90;;;;;;;-0.64;100.00;98409.72;5025831;28;20049;-79
2021/01/10 04:36:19;;;;;;;83.60;24.25;;;;;;;-0.62;100.00;98420.16;5009334;28;20050;-79
2021/01/10 04:38:46;;;;;;;79.80;23.92;;;;;;;-0.70;100.00;98420.44;4999855;28;20080;-77
2021/01/10 04:41:15;;;;;;;76.47;22.90;;;;;;;-0.71;100.00;98416.16;5032290;28;20052;-76
2021/01/10 04:43:42;;;;;;;80.55;23.58;;;;;;;-0.72;100.00;98415.34;5042941;28;20404;-78
2021/01/10 04:46:09;;;;;;;77.68;21.75;;;;;;;-0.75;100.00;98407.03;5029659;28;20037;-77
2021/01/10 04:48:36;;;;;;;73.07;23.33;;;;;;;-0.81;100.00;98416.69;5036085;28;20037;-76
2021/01/10 04:51:02;;;;;;;74.18;22.98;;;;;;;-0.86;100.00;98427.19;5053020;28;20049;-76
2021/01/10 04:53:33;;;;;;;85.22;24.48;;;;;;;-0.88;100.00;98413.28;5032888;28;20057;-78
2021/01/10 04:56:02;;;;;;;75.82;22.90;;;;;;;-0.89;100.00;98424.97;5011427;28;20042;-78
2021/01/10 04:58:29;;;;;;;78.60;23.10;;;;;;;-0.87;100.00;98430.84;5011736;28;20033;-77
2021/01/10 05:00:58;;;;;;;94.30;24.45;;;;;;;-0.88;100.00;98421.25;5028984;28;20057;-76
2021/01/10 05:03:25;;;;;;;76.60;22.67;;;;;;;-0.84;100.00;98435.75;5026263;28;20433;-77
2021/01/10 05:05:52;;;;;;;83.15;23.65;;;;;;;-0.83;100.00;98434.72;5027620;28;20440;-78
2021/01/10 05:08:19;;;;;;;76.35;23.20;;;;;;;-0.85;100.00;98435.97;5024842;28;20057;-77
2021/01/10 05:10:45;;;;;;;71.72;22.92;;;;;;;-0.77;100.00;98438.31;5015851;28;20046;-78
2021/01/10 05:13:11;;;;;;;71.30;22.95;;;;;;;-0.85;100.00;98439.41;5016052;28;20046;-76
2021/01/10 05:15:38;;;;;;;73.47;23.17;;;;;;;-0.87;100.00;98432.69;5029679;28;20052;-78
2021/01/10 05:18:04;;;;;;;67.03;21.92;;;;;;;-0.84;100.00;98443.72;5027126;28;20073;-78
2021/01/10 05:20:33;;;;;;;73.90;23.48;;;;;;;-0.78;100.00;98450.81;5027036;28;20488;-78
2021/01/10 05:23:01;;;;;;;69.32;22.02;;;;;;;-0.78;100.00;98440.16;5027588;28;20057;-78
2021/01/10 05:25:29;;;;;;;69.57;22.17;;;;;;;-0.76;100.00;98446.06;5028537;28;20026;-78
2021/01/10 05:27:58;;;;;;;70.93;23.38;;;;;;;-0.78;100.00;98447.31;5027682;28;20054;-77
2021/01/10 05:30:32;;;;;;;73.25;22.98;;;;;;;-0.68;100.00;98445.78;5010518;28;20052;-76
2021/01/10 05:33:06;;;;;;;;;;;;;;;-0.56;100.00;98448.47;5027392;28;20065;-78
2021/01/10 05:35:49;;;;;;;75.10;23.02;;;;;;;-0.55;100.00;98449.28;5026667;28;19928;-78
2021/01/10 05:38:30;;;;;;;70.40;22.58;;;;;;;-0.56;100.00;98455.63;5026966;28;20202;-77
2021/01/10 05:40:59;;;;;;;71.78;23.27;;;;;;;-0.62;100.00;98446.75;5033823;28;20086;-76
2021/01/10 05:43:26;;;;;;;68.07;23.35;;;;;;;-0.53;100.00;98439.25;5030594;28;20038;-78
2021/01/10 05:45:53;;;;;;;68.03;22.80;;;;;;;-0.51;100.00;98448.63;5029789;28;20042;-77
2021/01/10 05:48:20;;;;;;;73.47;24.25;;;;;;;-0.54;100.00;98449.06;5029521;28;20077;-78
2021/01/10 05:50:49;;;;;;;70.55;24.90;;;;;;;-0.64;100.00;98446.94;5032478;28;20022;-76
2021/01/10 05:53:21;;;;;;;70.03;23.40;;;;;;;-0.68;100.00;98445.78;5017850;28;20052;-77
2021/01/10 05:55:52;;;;;;;66.32;22.73;;;;;;;-0.70;100.00;98447.81;5034935;28;20034;-76
2021/01/10 05:58:18;;;;;;;70.43;23.45;;;;;;;-0.67;100.00;98447.38;5037004;28;20030;-76
2021/01/10 06:00:46;;;;;;;76.20;25.20;;;;;;;-0.61;100.00;98451.00;5021375;28;20018;-77
2021/01/10 06:03:12;;;;;;;67.55;22.00;;;;;;;-0.60;100.00;98435.88;5037919;28;20026;-77
2021/01/10 06:05:56;;;;;;;78.50;24.17;;;;;;;-0.57;100.00;98446.88;5046957;28;20035;-76
2021/01/10 06:08:29;;;;;;;70.35;23.17;;;;;;;-0.42;100.00;98457.09;5057204;28;20033;-78
2021/01/10 06:11:27;;;;;;;74.40;23.77;;;;;;;-0.31;100.00;98464.34;5058070;28;20033;-75
2021/01/10 06:13:56;;;;;;;68.25;23.63;;;;;;;-0.27;100.00;98452.19;5077255;28;20085;-78
2021/01/10 06:16:27;;;;;;;70.82;23.92;;;;;;;-0.27;100.00;98460.19;5075455;28;20029;-77
2021/01/10 06:18:57;;;;;;;73.28;23.92;;;;;;;-0.38;100.00;98468.91;5061380;28;20107;-77
2021/01/10 06:21:32;;;;;;;72.40;23.08;;;;;;;-0.44;100.00;98464.50;5040683;28;20473;-77
2021/01/10 06:24:03;;;;;;;75.50;24.67;;;;;;;-0.54;100.00;98457.03;5044429;28;20479;-76
2021/01/10 06:26:31;;;;;;;66.78;22.98;;;;;;;-0.44;100.00;98459.97;5048832;28;20295;-77
2021/01/10 06:28:58;;;;;;;71.90;23.80;;;;;;;-0.55;100.00;98463.41;5030958;28;20558;-76
2021/01/10 06:31:32;;;;;;;68.72;22.42;;;;;;;-0.64;100.00;98459.41;5042399;28;20420;-77
2021/01/10 06:34:01;;;;;;;69.65;23.50;;;;;;;-0.57;100.00;98467.31;5047292;28;20116;-78
2021/01/10 06:36:30;;;;;;;65.03;22.45;;;;;;;-0.62;100.00;98460.81;5048323;28;20037;-78
2021/01/10 06:39:01;;;;;;;72.72;22.50;;;;;;;-0.58;100.00;98471.00;5049341;28;20330;-78
2021/01/10 06:41:36;;;;;;;72.28;23.65;;;;;;;-0.64;100.00;98468.22;5046039;28;20037;-78
2021/01/10 06:44:04;;;;;;;74.28;24.85;;;;;;;-0.68;100.00;98463.56;5046287;28;20052;-77
2021/01/10 06:46:31;;;;;;;82.13;24.35;;;;;;;-0.72;100.00;98462.38;5045527;28;20226;-78
2021/01/10 06:49:02;;;;;;;74.60;23.65;;;;;;;-0.78;100.00;98456.13;5048997;28;20047;-78
2021/01/10 06:51:30;;;;;;;72.72;23.38;;;;;;;-0.83;100.00;98455.16;5057648;28;20043;-79
2021/01/10 06:54:02;;;;;;;76.95;22.98;;;;;;;-0.75;100.00;98463.63;5041270;28;20105;-78
2021/01/10 06:56:30;;;;;;;74.38;24.25;;;;;;;-0.81;100.00;98467.19;5066456;28;20041;-77
2021/01/10 06:59:09;;;;;;;73.38;25.30;;;;;;;-0.86;100.00;98468.88;5054824;28;20102;-77
2021/01/10 07:01:47;;;;;;;74.43;23.67;;;;;;;-0.75;100.00;98466.28;5056189;28;20400;-78
2021/01/10 07:04:16;;;;;;;76.07;24.65;;;;;;;-0.80;100.00;98449.41;5055710;28;20116;-77
2021/01/10 07:06:45;;;;;;;75.20;24.75;;;;;;;-0.70;100.00;98457.66;5055431;28;20048;-77
2021/01/10 07:09:11;;;;;;;69.80;23.58;;;;;;;-0.62;100.00;98460.81;5055406;28;20060;-78
2021/01/10 07:11:38;;;;;;;67.97;23.13;;;;;;;-0.57;100.00;98462.00;5056367;28;20064;-77
2021/01/10 07:14:04;;;;;;;70.28;24.10;;;;;;;-0.45;100.00;98471.66;5057247;28;20040;-78
2021/01/10 07:16:32;;;;;;;74.20;24.67;;;;;;;-0.52;100.00;98472.78;5056713;28;20514;-77
2021/01/10 07:19:09;;;;;;;64.72;23.27;;;;;;;-0.40;100.00;98466.50;5052598;28;20045;-77
2021/01/10 07:21:40;;;;;;;46.70;18.52;;;;;;;-0.61;100.00;98464.28;5045023;28;20087;-79
2021/01/10 07:24:12;;;;;;;49.95;19.50;;;;;;;-0.58;100.00;98465.69;5046594;28;20037;-80
2021/01/10 07:26:42;;;;;;;55.97;20.15;;;;;;;-0.52;100.00;98456.84;5024930;28;20037;-76
2021/01/10 07:29:30;;;;;;;52.45;19.10;;;;;;;-0.55;100.00;98463.41;5045089;28;20556;-77
2021/01/10 07:32:00;;;;;;;51.20;18.38;;;;;;;-0.61;100.00;98458.97;5038403;28;20032;-77
2021/01/10 07:34:28;;;;;;;39.85;15.73;;;;;;;-0.68;100.00;98450.28;5031843;28;20560;-76
2021/01/10 07:36:56;;;;;;;40.00;15.57;;;;;;;-0.74;100.00;98470.56;5030028;28;20128;-77
2021/01/10 07:39:26;;;;;;;42.55;15.93;;;;;;;-0.74;100.00;98457.28;5030591;28;20103;-77
2021/01/10 07:42:13;;;;;;;44.22;15.52;;;;;;;-0.89;100.00;98450.72;5026148;28;20237;-79
2021/01/10 07:44:56;;;;;;;36.15;13.52;;;;;;;-0.95;100.00;98468.34;5037584;28;20068;-77
2021/01/10 07:47:32;;;;;;;37.00;14.02;;;;;;;-0.92;100.00;98469.75;5030971;28;20056;-79
2021/01/10 07:49:59;;;;;;;31.40;13.10;;;;;;;-0.98;100.00;98468.00;5020739;23;20050;-80
2021/01/10 07:52:48;;;;;;;36.00;14.20;;;;;;;-1.03;100.00;98475.81;4979819;28;20058;-82
2021/01/10 07:55:18;;;;;;;38.65;15.55;;;;;;;-1.06;100.00;98479.72;4986811;28;20114;-90
2021/01/10 08:00:44;;;;;;;34.03;14.95;;;;;;;-0.86;100.00;98472.34;4958119;28;20043;-81
2021/01/10 08:03:37;;;;;;;36.00;14.68;;;;;;;-0.74;100.00;98480.41;4969791;28;20050;-78
2021/01/10 08:06:05;;;;;;;36.88;15.25;;;;;;;-0.66;100.00;98469.47;4959925;28;20514;-81
2021/01/10 08:08:35;;;;;;;31.27;13.30;;;;;;;-0.70;100.00;98479.72;4977915;28;20047;-81
2021/01/10 08:11:02;;;;;;;37.65;14.65;;;;;;;-0.73;100.00;98476.72;4962810;28;20047;-78
2021/01/10 08:13:39;;;;;;;34.78;13.85;;;;;;;-0.75;100.00;98478.78;4979487;28;20047;-80
2021/01/10 08:16:14;;;;;;;31.60;12.90;;;;;;;-0.77;100.00;98483.50;4979677;28;20230;-79
2021/01/10 08:18:45;;;;;;;32.65;13.95;;;;;;;-0.88;100.00;98481.59;4986402;28;20101;-81
2021/01/10 08:21:13;;;;;;;32.03;13.85;;;;;;;-0.87;100.00;98484.00;4989688;28;20042;-79
2021/01/10 08:23:41;;;;;;;37.58;14.55;;;;;;;-0.93;100.00;98481.44;4962394;28;20057;-81
2021/01/10 08:26:15;;;;;;;41.70;18.60;;;;;;;-0.96;100.00;98479.22;4979654;28;20039;-82
2021/01/10 08:28:44;;;;;;;40.63;16.83;;;;;;;-1.05;100.00;98491.16;4978305;28;20476;-82
2021/01/10 08:31:21;;;;;;;47.10;17.50;;;;;;;-1.12;100.00;98482.44;4980591;28;20047;-80
2021/01/10 08:33:50;;;;;;;43.85;16.23;;;;;;;-1.47;100.00;98493.56;4960004;28;20083;-80
2021/01/10 08:36:23;;;;;;;38.72;14.73;;;;;;;-1.50;100.00;98487.91;4971180;28;20130;-78
2021/01/10 08:38:55;;;;;;;41.05;15.90;;;;;;;-1.45;100.00;98504.00;4975334;28;20077;-78
2021/01/10 08:41:28;;;;;;;47.40;15.10;;;;;;;-1.49;100.00;98489.50;4957353;28;20227;-80
2021/01/10 08:43:59;;;;;;;38.78;15.35;;;;;;;-1.47;100.00;98496.22;4957798;28;20058;-79
2021/01/10 08:46:31;;;;;;;46.40;15.20;;;;;;;-1.48;100.00;98489.31;4961139;28;20051;-78
2021/01/10 08:49:00;;;;;;;39.75;13.68;;;;;;;-1.50;100.00;98494.03;4964611;28;20557;-78
2021/01/10 08:51:27;;;;;;;31.77;12.68;;;;;;;-1.46;100.00;98481.94;4954095;28;20522;-80
2021/01/10 08:53:58;;;;;;;31.67;12.35;;;;;;;-1.32;100.00;98498.56;4967154;28;20512;-81
2021/01/10 08:56:24;;;;;;;36.70;13.50;;;;;;;-1.75;100.00;98489.69;4967447;28;20058;-78
2021/01/10 08:58:56;;;;;;;34.53;14.23;;;;;;;-1.38;100.00;98491.47;4970131;28;20051;-79
2021/01/10 09:01:25;;;;;;;37.92;13.90;;;;;;;-1.32;100.00;98507.31;4949021;28;20053;-78
2021/01/10 09:04:02;;;;;;;38.40;13.80;;;;;;;-1.08;100.00;98497.72;4984096;28;20042;-78
2021/01/10 09:06:52;;;;;;;40.70;14.68;;;;;;;-0.70;100.00;98501.00;4982212;28;20038;-78
2021/01/10 09:09:37;;;;;;;42.92;14.55;;;;;;;-0.47;100.00;98505.66;4965448;28;20045;-79
2021/01/10 09:12:19;;;;;;;38.08;14.20;;;;;;;-0.38;100.00;98495.50;4968149;28;20050;-79
2021/01/10 09:14:58;;;;;;;38.30;14.57;;;;;;;0.13;100.00;98497.72;4965840;28;20405;-78
2021/01/10 09:17:48;;;;;;;38.42;15.10;;;;;;;0.41;100.00;98493.34;4985470;28;20149;-78
2021/01/10 09:20:25;;;;;;;33.40;14.02;;;;;;;0.43;100.00;98493.16;4964987;28;20046;-79
2021/01/10 09:22:52;;;;;;;34.95;13.38;;;;;;;0.58;100.00;98496.19;4980930;28;20042;-80
2021/01/10 09:25:19;;;;;;;39.30;16.63;;;;;;;0.81;100.00;98482.06;4963199;28;20118;-79
2021/01/10 09:28:08;;;;;;;39.53;16.60;;;;;;;0.91;100.00;98485.78;4978857;28;20302;-80
2021/01/10 09:30:41;;;;;;;45.92;18.58;;;;;;;2.92;100.00;98499.50;4958960;28;20154;-80
2021/01/10 09:33:08;;;;;;;45.05;19.27;;;;;;;5.11;100.00;98488.25;4946619;28;20050;-81
2021/01/10 09:35:41;;;;;;;45.15;18.30;;;;;;;5.11;100.00;98488.25;4983542;28;20145;-82
2021/01/10 09:38:15;;;;;;;38.67;17.08;;;;;;;7.48;100.00;98484.16;4985279;28;20498;-82
2021/01/10 09:41:03;;;;;;;39.58;17.42;;;;;;;8.24;100.00;98476.50;4952815;28;20246;-82
2021/01/10 09:43:33;;;;;;;38.00;17.88;;;;;;;8.11;100.00;98469.03;4985755;28;20069;-82
2021/01/10 09:45:59;;;;;;;34.83;17.00;;;;;;;7.80;100.00;98470.28;4982556;28;20045;-82
2021/01/10 09:48:26;;;;;;;43.75;20.92;;;;;;;8.18;100.00;98461.47;4981027;28;20494;-84
2021/01/10 09:59:58;;;;;;;46.65;22.52;;;;;;;8.04;97.78;98457.75;4980933;28;20418;-83
2021/01/10 10:20:10;;;;;;;26.90;14.23;;;;;;;9.58;67.01;98455.94;5039255;28;20100;-85
2021/01/10 10:23:34;;;;;;;27.58;15.02;;;;;;;9.11;64.21;98440.47;5026524;28;20137;-83
2021/01/10 10:27:08;;;;;;;;;;;;;;;;;;;;;
2021/01/10 10:30:21;;;;;;;27.55;15.90;;;;;;;9.17;64.07;98427.72;5038225;28;20103;-83
2021/01/10 10:33:09;;;;;;;31.58;17.65;;;;;;;8.21;72.87;98430.44;5022014;28;20096;-82
2021/01/10 10:36:43;;;;;;;32.75;17.42;;;;;;;8.36;82.76;98438.44;5024025;28;20120;-82
2021/01/10 10:44:40;;;;;;;32.75;17.23;;;;;;;7.43;94.07;98446.44;4938039;28;20031;-81
2021/01/10 10:48:15;;;;;;;;;;;;;;;;;;;;;
2021/01/10 10:51:15;;;;;;;36.13;17.23;;;;;;;6.22;100.00;98431.22;4952831;28;20062;-83
2021/01/10 10:54:09;;;;;;;31.23;16.80;;;;;;;4.87;100.00;98431.47;4941560;29;20051;-82
2021/01/10 10:56:42;;;;;;;35.78;18.20;;;;;;;4.49;100.00;98413.75;4953923;29;20082;-83
2021/01/10 10:59:10;;;;;;;35.13;17.90;;;;;;;3.18;100.00;98433.78;4982149;28;20238;-79
2021/01/10 11:01:47;;;;;;;42.53;18.08;;;;;;;1.58;100.00;98438.09;5032923;28;20497;-79
2021/01/10 11:04:13;;;;;;;38.47;19.30;;;;;;;2.15;100.00;98442.38;5001618;28;20045;-80
2021/01/10 11:06:39;;;;;;;45.72;19.83;;;;;;;2.38;100.00;98436.06;4986661;28;20081;-79
2021/01/10 11:09:09;;;;;;;38.13;18.45;;;;;;;1.83;100.00;98434.06;5042911;28;20100;-78
2021/01/10 11:11:47;;;;;;;35.45;17.23;;;;;;;2.69;100.00;98430.16;5034911;28;20041;-82
2021/01/10 11:14:16;;;;;;;37.25;17.42;;;;;;;3.23;100.00;98436.53;5027522;28;20080;-82
2021/01/10 11:16:51;;;;;;;39.67;18.15;;;;;;;2.88;100.00;98425.38;5016337;28;20049;-82
2021/01/10 11:19:17;;;;;;;39.58;18.42;;;;;;;3.24;100.00;98414.09;4985315;28;20050;-82
2021/01/10 11:21:49;;;;;;;43.83;19.15;;;;;;;3.27;100.00;98434.19;5019365;28;20046;-82
2021/01/10 11:24:16;;;;;;;36.75;18.23;;;;;;;3.86;100.00;98424.44;5001197;28;20042;-82
2021/01/10 11:26:44;;;;;;;36.65;18.35;;;;;;;4.33;100.00;98423.56;5019680;28;20423;-82
2021/01/10 11:29:12;;;;;;;36.40;18.23;;;;;;;4.82;100.00;98416.16;5024792;28;20046;-81
2021/01/10 11:31:40;;;;;;;43.00;18.73;;;;;;;4.51;100.00;98417.00;5019844;28;20163;-81
2021/01/10 11:34:10;;;;;;;37.40;17.67;;;;;;;4.59;100.00;98415.72;5002402;28;20088;-82
2021/01/10 11:36:41;;;;;;;37.03;17.73;;;;;;;4.47;100.00;98407.84;5051460;28;20056;-82
2021/01/10 11:39:08;;;;;;;35.60;18.10;;;;;;;4.60;100.00;98411.94;5058957;28;20045;-81
2021/01/10 11:41:34;;;;;;;32.22;17.35;;;;;;;3.99;100.00;98399.91;5057857;28;20489;-83
2021/01/10 11:44:01;;;;;;;36.15;17.45;;;;;;;3.71;100.00;98409.03;5022499;28;20041;-82
2021/01/10 11:46:27;;;;;;;36.95;18.00;;;;;;;4.05;100.00;98401.59;5006376;28;20049;-81
2021/01/10 11:48:55;;;;;;;35.63;17.58;;;;;;;4.20;100.00;98405.22;5022045;28;20053;-82
2021/01/10 11:51:22;;;;;;;36.80;17.77;;;;;;;6.13;100.00;98399.75;5024568;28;20041;-81
2021/01/10 11:53:48;;;;;;;27.08;14.98;;;;;;;7.60;100.00;98390.34;5040062;28;20060;-81
2021/01/10 11:56:14;;;;;;;31.38;16.42;;;;;;;8.35;100.00;98388.25;5049833;28;20069;-80
2021/01/10 11:58:41;;;;;;;27.83;14.60;;;;;;;10.00;77.95;98377.50;5037951;28;20044;-81
2021/01/10 12:01:08;;;;;;;27.00;14.82;;;;;;;10.79;67.04;98383.84;5022022;28;20049;-82
2021/01/10 12:03:35;;;;;;;26.27;14.73;;;;;;;10.46;62.93;98377.63;5011388;28;20081;-80
2021/01/10 12:06:03;;;;;;;25.05;14.57;;;;;;;8.49;81.84;98378.44;5026520;28;20046;-83
2021/01/10 12:08:30;;;;;;;32.88;16.00;;;;;;;9.06;77.60;98383.03;5029217;28;20424;-81